Time;durP1;ratioP1;P1;durP2;ratioP2;P2;SDS_P1;SDS_P2;PMS_P1;PMS_P2;Temp;Humidity;BMP_temperature;BMP_pressure;BME280_temperature;BME280_humidity;BME280_pressure;Samples;Min_cycle;Max_cycle;Signal;HPM_P1;HPM_P2
2021/09/12 00:01:21;;;;;;;17.35;11.80;;;;;;;18.34;54.25;100163.74;1732655;82;20894;-65
2021/09/12 00:03:48;;;;;;;20.75;13.75;;;;;;;18.36;54.02;100167.53;1720088;82;21419;-65
2021/09/12 00:06:15;;;;;;;20.15;13.15;;;;;;;18.38;53.98;100169.42;1729178;82;21020;-64
2021/09/12 00:08:42;;;;;;;20.30;13.28;;;;;;;18.38;53.90;100171.58;1722685;81;21925;-65
2021/09/12 00:11:11;;;;;;;18.52;13.48;;;;;;;18.39;54.18;100170.50;1721588;82;20913;-65
2021/09/12 00:13:38;;;;;;;21.40;13.88;;;;;;;18.38;54.26;100160.72;1712756;82;21428;-65
2021/09/12 00:16:06;;;;;;;;;;;;;;;18.37;54.39;100160.48;1726154;82;20999;-64
2021/09/12 00:18:35;;;;;;;18.73;12.58;;;;;;;18.38;54.26;100160.72;1684837;84;20497;-64
2021/09/12 00:21:02;;;;;;;20.17;13.05;;;;;;;18.38;54.04;100168.06;1728984;82;21205;-65
2021/09/12 00:23:29;;;;;;;22.40;13.53;;;;;;;18.39;53.86;100170.50;1689762;84;21064;-64
2021/09/12 00:25:56;;;;;;;20.72;13.90;;;;;;;18.41;53.92;100163.44;1677101;83;20967;-66
2021/09/12 00:28:24;;;;;;;22.00;13.93;;;;;;;18.42;54.13;100165.59;1679813;84;21063;-64
2021/09/12 00:30:53;;;;;;;;;;;;;;;18.39;54.18;100158.28;1696336;83;20987;-65
2021/09/12 00:33:19;;;;;;;22.25;13.35;;;;;;;18.38;53.93;100158.01;1687018;84;21882;-65
2021/09/12 00:35:47;;;;;;;21.10;14.38;;;;;;;18.38;53.97;100158.56;1698945;82;20925;-65
2021/09/12 00:38:14;;;;;;;21.57;14.30;;;;;;;18.38;54.02;100160.72;1697183;84;21154;-65
2021/09/12 00:40:41;;;;;;;23.10;13.73;;;;;;;18.37;54.11;100162.36;1723310;82;21019;-65
2021/09/12 00:43:08;;;;;;;23.45;14.85;;;;;;;18.35;54.12;100150.98;1678165;84;21383;-65
2021/09/12 00:45:36;;;;;;;21.68;13.62;;;;;;;18.32;54.16;100159.67;1656436;84;21139;-65
2021/09/12 00:48:04;;;;;;;23.80;14.47;;;;;;;18.27;54.30;100156.42;1725115;82;20884;-65
2021/09/12 00:50:32;;;;;;;18.82;13.48;;;;;;;18.24;54.47;100160.22;1728908;82;20927;-65
2021/09/12 00:53:02;;;;;;;20.27;13.85;;;;;;;18.18;54.56;100154.81;1715226;82;20939;-64
2021/09/12 00:55:29;;;;;;;;;;;;;;;18.18;54.45;100161.59;1731654;80;20979;-64
2021/09/12 00:57:57;;;;;;;23.90;15.08;;;;;;;18.17;54.58;100154.53;1758476;80;21790;-65
2021/09/12 01:00:26;;;;;;;26.50;14.10;;;;;;;18.15;54.69;100153.17;1752376;80;21509;-65
2021/09/12 01:02:53;;;;;;;21.30;13.62;;;;;;;18.11;54.83;100152.92;1756881;80;20966;-66
2021/09/12 01:05:20;;;;;;;23.90;14.07;;;;;;;18.08;54.83;100146.69;1729198;79;20971;-65
2021/09/12 01:07:47;;;;;;;22.22;14.10;;;;;;;18.07;54.90;100147.77;1766853;80;20979;-65
2021/09/12 01:10:14;;;;;;;21.17;14.10;;;;;;;18.03;54.92;100142.61;1766452;80;22015;-65
2021/09/12 01:12:42;;;;;;;19.92;13.32;;;;;;;17.98;54.99;100152.13;1764874;80;20849;-65
2021/09/12 01:15:10;;;;;;;23.52;14.75;;;;;;;17.93;55.10;100152.95;1754835;80;20887;-65
2021/09/12 01:17:37;;;;;;;22.93;14.28;;;;;;;17.84;55.36;100154.00;1769367;80;21059;-67
2021/09/12 01:20:06;;;;;;;23.18;14.40;;;;;;;17.75;55.59;100149.39;1764352;80;21050;-66
2021/09/12 01:22:34;;;;;;;25.85;13.95;;;;;;;17.65;55.85;100146.13;1757787;80;21105;-66
2021/09/12 01:25:02;;;;;;;21.93;14.75;;;;;;;17.61;56.05;100149.93;1764297;80;21575;-66
2021/09/12 01:27:29;;;;;;;22.52;14.70;;;;;;;17.61;56.20;100147.22;1755962;80;20888;-66
2021/09/12 01:29:55;;;;;;;27.58;14.65;;;;;;;17.62;56.33;100148.85;1740831;80;21039;-65
2021/09/12 01:32:26;;;;;;;23.45;15.00;;;;;;;17.64;56.44;100154.00;1726133;82;20991;-66
2021/09/12 01:34:53;;;;;;;23.45;15.85;;;;;;;17.63;56.48;100154.52;1757363;80;21153;-65
2021/09/12 01:37:20;;;;;;;24.82;14.78;;;;;;;17.63;56.52;100152.37;1756272;80;21025;-64
2021/09/12 01:39:47;;;;;;;21.73;14.87;;;;;;;17.61;56.65;100147.77;1766632;80;20929;-64
2021/09/12 01:42:14;;;;;;;25.02;15.38;;;;;;;17.59;56.48;100152.08;1764254;80;21030;-65
2021/09/12 01:44:47;;;;;;;24.50;15.03;;;;;;;17.59;56.51;100152.08;1763798;80;20959;-65
2021/09/12 01:47:16;;;;;;;24.30;15.30;;;;;;;17.59;56.64;100152.63;1758388;80;21030;-65
2021/09/12 01:49:45;;;;;;;23.27;16.05;;;;;;;17.58;56.53;100153.70;1762862;80;20940;-65
2021/09/12 01:52:14;;;;;;;33.48;16.07;;;;;;;17.56;56.54;100158.59;1751802;80;21048;-65
2021/09/12 01:54:41;;;;;;;25.75;16.25;;;;;;;17.53;56.55;100157.78;1763393;79;20919;-65
2021/09/12 01:57:08;;;;;;;24.53;16.57;;;;;;;17.47;56.66;100153.69;1767404;80;21039;-64
2021/09/12 01:59:36;;;;;;;23.32;16.10;;;;;;;17.45;56.72;100153.71;1731109;80;21170;-64
2021/09/12 02:02:04;;;;;;;24.98;16.52;;;;;;;17.42;56.84;100155.61;1754913;80;21089;-65
2021/09/12 02:04:31;;;;;;;26.00;17.02;;;;;;;17.41;57.01;100152.06;1760643;80;20895;-65
2021/09/12 02:06:58;;;;;;;26.25;16.23;;;;;;;17.39;57.03;100155.59;1756627;80;21818;-65
2021/09/12 02:09:27;;;;;;;34.58;17.12;;;;;;;17.36;57.09;100154.78;1739267;80;20943;-64
2021/09/12 02:11:54;;;;;;;27.40;16.97;;;;;;;17.33;57.15;100155.32;1727831;80;21156;-64
2021/09/12 02:14:22;;;;;;;22.58;16.23;;;;;;;17.29;57.33;100154.22;1751490;80;20943;-65
2021/09/12 02:16:50;;;;;;;26.07;16.27;;;;;;;17.24;57.42;100152.33;1759969;80;20991;-65
2021/09/12 02:19:18;;;;;;;28.47;16.62;;;;;;;17.20;57.58;100154.48;1762750;80;20864;-65
2021/09/12 02:21:45;;;;;;;32.58;17.20;;;;;;;17.15;57.68;100161.51;1727355;80;21015;-65
2021/09/12 02:24:12;;;;;;;25.75;16.57;;;;;;;17.10;57.84;100157.41;1751237;80;21866;-65
2021/09/12 02:26:40;;;;;;;;;;;;;;;17.08;57.99;100152.82;1750799;80;21050;-66
2021/09/12 02:29:07;;;;;;;26.12;16.25;;;;;;;17.04;58.17;100155.78;1729799;82;20129;-65
2021/09/12 02:31:34;;;;;;;29.42;18.17;;;;;;;16.99;58.40;100155.78;1746168;82;21014;-65
2021/09/12 02:34:02;;;;;;;26.52;17.50;;;;;;;16.95;58.53;100156.03;1746242;82;20844;-65
2021/09/12 02:36:29;;;;;;;32.30;17.90;;;;;;;16.91;58.63;100153.58;1746948;82;21113;-67
2021/09/12 02:38:56;;;;;;;29.27;17.17;;;;;;;16.87;58.77;100154.66;1716664;82;20999;-65
2021/09/12 02:41:23;;;;;;;29.90;18.20;;;;;;;16.84;59.05;100151.06;1746242;82;21545;-65
2021/09/12 02:43:50;;;;;;;29.07;17.50;;;;;;;16.82;59.05;100158.66;1749274;80;20947;-65
2021/09/12 02:46:17;;;;;;;26.95;18.87;;;;;;;16.80;59.11;100160.27;1746209;82;21485;-65
2021/09/12 02:48:44;;;;;;;27.25;17.50;;;;;;;16.80;59.25;100156.77;1745726;82;21151;-64
2021/09/12 02:51:13;;;;;;;26.17;17.82;;;;;;;16.82;59.38;100160.00;1745113;80;20919;-66
2021/09/12 02:53:40;;;;;;;27.02;18.40;;;;;;;16.85;59.50;100153.25;1767142;80;20960;-66
2021/09/12 02:56:07;;;;;;;24.70;17.60;;;;;;;16.89;59.41;100155.20;1736097;82;21468;-65
2021/09/12 02:58:36;;;;;;;27.15;18.75;;;;;;;16.89;59.37;100157.09;1731438;80;20920;-65
2021/09/12 03:01:04;;;;;;;;;;;;;;;16.85;59.48;100159.47;1769378;80;20966;-65
2021/09/12 03:03:33;;;;;;;24.10;16.25;;;;;;;16.80;59.62;100160.82;1754953;80;20128;-66
2021/09/12 03:06:00;;;;;;;24.23;16.75;;;;;;;16.75;59.76;100159.43;1764551;80;20883;-64
2021/09/12 03:08:27;;;;;;;26.73;17.75;;;;;;;16.72;59.83;100155.91;1752720;80;20931;-65
2021/09/12 03:10:55;;;;;;;24.85;16.10;;;;;;;16.70;59.99;100151.30;1755841;80;21734;-65
2021/09/12 03:13:22;;;;;;;26.35;16.90;;;;;;;16.72;60.05;100154.00;1724481;82;21182;-65
2021/09/12 03:15:49;;;;;;;28.05;17.87;;;;;;;16.77;59.98;100149.98;1760211;80;20907;-65
2021/09/12 03:18:16;;;;;;;25.25;17.00;;;;;;;16.81;60.01;100152.95;1716987;82;20974;-65
2021/09/12 03:20:44;;;;;;;29.27;18.10;;;;;;;16.84;59.91;100152.97;1746062;82;20967;-65
2021/09/12 03:23:12;;;;;;;29.67;18.45;;;;;;;16.85;59.79;100149.20;1745868;82;20880;-64
2021/09/12 03:25:40;;;;;;;;;;;;;;;16.87;59.78;100145.19;1741547;82;20879;-70
2021/09/12 03:28:07;;;;;;;25.88;17.17;;;;;;;16.90;59.70;100149.23;1746625;82;20118;-63
2021/09/12 03:30:35;;;;;;;27.82;16.82;;;;;;;16.90;59.71;100151.94;1753789;80;20943;-64
2021/09/12 03:33:02;;;;;;;35.55;18.32;;;;;;;16.92;59.66;100148.44;1759351;80;21301;-64
2021/09/12 03:35:29;;;;;;;41.15;20.23;;;;;;;16.92;59.75;100149.80;1718576;80;21600;-64
2021/09/12 03:37:56;;;;;;;40.33;19.85;;;;;;;16.89;59.60;100151.69;1762958;80;21149;-65
2021/09/12 03:40:23;;;;;;;30.25;18.55;;;;;;;16.84;59.63;100159.19;1746638;82;20911;-65
2021/09/12 03:42:50;;;;;;;29.77;19.73;;;;;;;16.80;59.66;100162.98;1725199;82;20975;-65
2021/09/12 03:45:17;;;;;;;30.52;18.60;;;;;;;16.78;59.70;100161.61;1746544;82;20908;-65
2021/09/12 03:47:44;;;;;;;33.38;19.77;;;;;;;16.73;59.75;100158.34;1746261;82;21452;-65
2021/09/12 03:50:13;;;;;;;;;;;;;;;16.72;59.54;100168.89;1749519;82;20884;-66
2021/09/12 03:52:40;;;;;;;30.00;18.60;;;;;;;16.71;59.62;100161.87;1737629;82;20425;-66
2021/09/12 03:55:09;;;;;;;32.63;19.23;;;;;;;16.70;59.55;100171.60;1714893;82;20943;-65
2021/09/12 03:57:36;;;;;;;36.98;21.35;;;;;;;16.69;59.50;100172.13;1722164;82;21015;-64
2021/09/12 04:00:07;;;;;;;30.55;18.98;;;;;;;16.70;59.49;100172.41;1717497;82;20983;-65
2021/09/12 04:02:36;;;;;;;32.80;19.62;;;;;;;16.71;59.53;100178.11;1723470;82;21143;-65
2021/09/12 04:05:04;;;;;;;30.55;19.77;;;;;;;16.74;59.58;100175.39;1727335;82;20966;-65
2021/09/12 04:07:32;;;;;;;34.67;20.27;;;;;;;16.76;59.54;100175.41;1715675;81;20887;-65
2021/09/12 04:09:59;;;;;;;33.40;19.80;;;;;;;16.80;59.56;100173.00;1728376;82;20999;-65
2021/09/12 04:12:26;;;;;;;35.15;21.33;;;;;;;16.82;59.48;100175.70;1721825;82;21041;-65
2021/09/12 04:14:55;;;;;;;32.25;20.37;;;;;;;16.88;59.40;100175.77;1721563;81;20982;-67
2021/09/12 04:17:22;;;;;;;29.30;18.95;;;;;;;16.96;59.40;100167.95;1715686;82;21453;-66
2021/09/12 04:19:50;;;;;;;28.70;19.63;;;;;;;17.34;59.09;100171.30;1725203;82;20832;-65
2021/09/12 04:22:17;;;;;;;29.80;18.85;;;;;;;18.14;57.61;100166.48;1729676;82;21215;-64
2021/09/12 04:24:45;;;;;;;30.48;20.02;;;;;;;19.05;55.48;100157.80;1725383;82;20920;-65
2021/09/12 04:27:12;;;;;;;29.85;19.37;;;;;;;19.99;53.08;100160.69;1728069;82;21107;-64
2021/09/12 04:29:39;;;;;;;29.00;18.52;;;;;;;20.90;50.56;100159.44;1719777;82;20868;-64
2021/09/12 04:32:07;;;;;;;26.50;19.77;;;;;;;21.73;48.40;100153.66;1724134;82;20900;-65
2021/09/12 04:34:33;;;;;;;26.45;17.90;;;;;;;22.52;46.42;100152.78;1732512;82;21165;-65
2021/09/12 04:37:01;;;;;;;26.57;17.77;;;;;;;23.26;44.59;100157.27;1721837;82;20935;-64
2021/09/12 04:39:28;;;;;;;26.15;17.57;;;;;;;23.94;43.07;100151.03;1715250;82;21122;-65
2021/09/12 04:41:55;;;;;;;27.27;17.70;;;;;;;24.54;41.81;100158.45;1727206;82;21021;-63
2021/09/12 04:44:22;;;;;;;25.50;17.87;;;;;;;25.04;40.63;100159.48;1724871;81;21461;-65
2021/09/12 04:46:49;;;;;;;28.50;17.73;;;;;;;25.30;39.75;100166.39;1683110;83;20939;-64
2021/09/12 04:49:16;;;;;;;27.58;17.02;;;;;;;25.41;39.42;100161.41;1676422;85;21552;-64
2021/09/12 04:51:44;;;;;;;28.73;18.00;;;;;;;25.69;39.01;100162.41;1720974;82;20946;-64
2021/09/12 04:54:13;;;;;;;;;;;;;;;26.21;38.09;100154.66;1730528;82;20836;-64
2021/09/12 04:56:40;;;;;;;33.30;17.52;;;;;;;26.75;37.22;100154.09;1726588;82;20124;-64
2021/09/12 04:59:08;;;;;;;25.57;17.17;;;;;;;27.27;36.22;100152.36;1721586;82;20923;-65
2021/09/12 05:01:37;;;;;;;23.40;14.68;;;;;;;27.76;35.38;100153.73;1720015;82;20982;-68
2021/09/12 05:04:05;;;;;;;25.82;16.60;;;;;;;28.13;34.61;100149.71;1724851;82;21204;-64
2021/09/12 05:06:32;;;;;;;20.15;14.73;;;;;;;28.50;33.46;100152.48;1689802;82;21024;-66
2021/09/12 05:09:01;;;;;;;19.00;15.13;;;;;;;28.79;32.94;100153.43;1711131;82;21433;-66
2021/09/12 05:11:29;;;;;;;23.57;15.75;;;;;;;29.15;32.23;100151.73;1692292;82;20899;-66
2021/09/12 05:13:58;;;;;;;22.67;16.60;;;;;;;29.47;31.54;100154.06;1720251;82;20955;-66
2021/09/12 05:16:26;;;;;;;26.48;14.80;;;;;;;29.68;31.16;100151.67;1729288;82;21158;-65
2021/09/12 05:18:55;;;;;;;23.30;15.55;;;;;;;29.82;30.83;100149.33;1697127;82;21002;-66
2021/09/12 05:21:22;;;;;;;21.33;15.80;;;;;;;30.14;30.38;100146.60;1731314;82;20963;-65
2021/09/12 05:23:49;;;;;;;20.48;14.30;;;;;;;30.48;29.80;100147.66;1728035;82;20974;-66
2021/09/12 05:26:17;;;;;;;18.95;14.60;;;;;;;30.67;29.66;100141.34;1724238;82;21054;-65
2021/09/12 05:28:44;;;;;;;18.10;13.45;;;;;;;30.83;29.26;100146.28;1690924;82;21199;-65
2021/09/12 05:31:11;;;;;;;18.65;14.40;;;;;;;30.99;28.96;100137.12;1719211;82;20879;-64
2021/09/12 05:33:39;;;;;;;21.15;15.35;;;;;;;31.10;28.64;100140.95;1720253;82;21033;-66
2021/09/12 05:36:06;;;;;;;19.65;13.75;;;;;;;30.95;28.45;100148.13;1690918;83;20987;-64
2021/09/12 05:38:33;;;;;;;20.30;14.93;;;;;;;30.41;29.34;100149.65;1722081;82;21062;-66
2021/09/12 05:41:02;;;;;;;22.73;14.03;;;;;;;30.24;29.94;100148.01;1722910;82;20962;-65
2021/09/12 05:43:29;;;;;;;23.20;15.27;;;;;;;30.38;29.78;100142.84;1734489;82;20895;-65
2021/09/12 05:45:56;;;;;;;19.85;14.95;;;;;;;30.55;29.67;100140.88;1728331;82;21580;-65
2021/09/12 05:48:23;;;;;;;20.60;15.40;;;;;;;30.57;29.84;100139.95;1721443;82;20951;-65
2021/09/12 05:50:52;;;;;;;23.22;14.28;;;;;;;30.65;29.67;100136.77;1710673;83;20876;-65
2021/09/12 05:53:21;;;;;;;21.70;14.28;;;;;;;30.67;29.63;100147.70;1678765;83;20928;-64
2021/09/12 05:55:48;;;;;;;22.75;16.60;;;;;;;30.47;29.93;100141.30;1718462;83;21448;-63
2021/09/12 05:58:15;;;;;;;22.42;16.27;;;;;;;30.26;30.40;100138.01;1720391;82;20938;-65
2021/09/12 06:00:44;;;;;;;22.17;16.30;;;;;;;30.11;30.61;100143.17;1720866;82;21477;-65
2021/09/12 06:03:11;;;;;;;26.05;16.02;;;;;;;29.95;31.04;100139.02;1731652;82;20954;-68
2021/09/12 06:05:38;;;;;;;26.52;15.78;;;;;;;29.84;31.10;100136.55;1721532;82;21808;-65
2021/09/12 06:08:05;;;;;;;21.97;15.35;;;;;;;29.65;31.31;100138.02;1732338;82;20950;-65
2021/09/12 06:10:33;;;;;;;24.25;14.83;;;;;;;29.36;32.17;100130.90;1725317;82;20942;-64
2021/09/12 06:13:00;;;;;;;29.23;15.75;;;;;;;29.36;32.17;100130.90;1718435;83;20962;-65
2021/09/12 06:15:28;;;;;;;24.50;15.03;;;;;;;29.33;32.13;100131.02;1717754;83;21077;-64
2021/09/12 06:17:55;;;;;;;27.05;15.98;;;;;;;29.34;32.23;100132.63;1718343;83;21128;-67
2021/09/12 06:20:24;;;;;;;23.07;15.65;;;;;;;29.40;32.11;100140.06;1680115;85;21051;-64
2021/09/12 06:22:53;;;;;;;20.68;15.18;;;;;;;29.40;31.86;100140.65;1718561;83;20891;-65
2021/09/12 06:25:21;;;;;;;26.65;16.52;;;;;;;29.40;32.31;100132.37;1717141;83;20887;-62
2021/09/12 06:27:48;;;;;;;24.75;15.98;;;;;;;29.47;32.46;100131.98;1683928;85;21010;-65
2021/09/12 06:30:17;;;;;;;28.50;16.50;;;;;;;29.57;32.34;100141.72;1720971;83;22005;-64
2021/09/12 06:32:44;;;;;;;24.65;17.17;;;;;;;29.61;32.12;100139.05;1716256;83;21590;-65
2021/09/12 06:35:11;;;;;;;28.62;17.48;;;;;;;29.66;31.70;100142.36;1718198;83;20887;-64
2021/09/12 06:37:38;;;;;;;23.12;16.65;;;;;;;29.69;31.70;100141.66;1718411;83;20935;-65
2021/09/12 06:40:06;;;;;;;25.45;15.88;;;;;;;29.67;31.57;100140.42;1725629;82;21009;-64
2021/09/12 06:42:34;;;;;;;23.18;17.67;;;;;;;29.64;32.01;100143.30;1691571;82;21513;-64
2021/09/12 06:45:01;;;;;;;27.03;17.93;;;;;;;29.71;31.80;100146.82;1731367;82;20950;-64
2021/09/12 06:47:28;;;;;;;33.10;19.82;;;;;;;29.71;31.65;100146.27;1724787;82;21026;-64
2021/09/12 06:49:55;;;;;;;33.63;21.37;;;;;;;29.70;31.51;100143.85;1687674;82;20962;-63
2021/09/12 06:52:22;;;;;;;33.98;20.95;;;;;;;29.64;31.86;100146.66;1680539;83;20927;-64
2021/09/12 06:54:49;;;;;;;36.40;22.15;;;;;;;29.59;32.18;100142.16;1722755;82;21124;-65
2021/09/12 06:57:16;;;;;;;41.40;24.63;;;;;;;29.57;31.99;100140.34;1725816;82;20923;-65
2021/09/12 06:59:43;;;;;;;41.83;23.83;;;;;;;29.57;32.12;100142.31;1725033;82;21428;-63
2021/09/12 07:02:12;;;;;;;40.03;21.83;;;;;;;29.48;32.77;100147.40;1691089;84;20938;-64
2021/09/12 07:04:39;;;;;;;;;;;;;;;29.48;32.77;100147.40;1713473;83;21341;-63
2021/09/12 07:07:05;;;;;;;37.67;22.45;;;;;;;29.51;32.50;100148.08;1690502;83;21187;-63
2021/09/12 07:09:32;;;;;;;38.35;22.52;;;;;;;29.56;32.29;100150.36;1709512;83;21048;-63
2021/09/12 07:12:01;;;;;;;31.42;21.12;;;;;;;29.62;31.51;100151.70;1688845;84;20939;-63
2021/09/12 07:14:28;;;;;;;35.23;22.75;;;;;;;29.65;31.26;100150.44;1702085;83;20982;-64
2021/09/12 07:16:56;;;;;;;38.42;23.10;;;;;;;29.70;31.31;100144.65;1710230;84;20958;-63
2021/09/12 07:19:24;;;;;;;45.08;25.70;;;;;;;29.79;31.12;100151.39;1710232;84;26944;-64
2021/09/12 07:21:52;;;;;;;43.10;25.57;;;;;;;29.87;30.81;100148.27;1705710;84;21018;-64
2021/09/12 07:24:19;;;;;;;42.55;25.90;;;;;;;29.85;30.48;100156.11;1675730;85;21015;-62
2021/09/12 07:26:46;;;;;;;41.48;24.70;;;;;;;29.65;30.35;100160.66;1675933;85;21501;-62
2021/09/12 07:29:13;;;;;;;42.15;24.70;;;;;;;29.35;30.83;100154.12;1630028;86;20940;-62
2021/09/12 07:31:40;;;;;;;42.98;25.10;;;;;;;29.07;31.35;100149.34;1675816;85;21763;-63
2021/09/12 07:34:07;;;;;;;50.38;29.35;;;;;;;28.84;31.56;100147.66;1635235;86;21066;-62
2021/09/12 07:36:34;;;;;;;46.30;25.85;;;;;;;28.71;31.85;100148.83;1624207;85;20991;-63
2021/09/12 07:39:01;;;;;;;50.92;29.67;;;;;;;28.59;31.67;100147.69;1650384;86;21067;-62
2021/09/12 07:41:29;;;;;;;52.50;29.18;;;;;;;28.45;31.17;100145.84;1675945;85;21486;-62
2021/09/12 07:43:56;;;;;;;39.67;25.12;;;;;;;28.23;31.96;100142.96;1655282;86;21135;-62
2021/09/12 07:46:23;;;;;;;37.98;20.52;;;;;;;28.07;32.79;100142.82;1676131;85;21586;-62
2021/09/12 07:48:52;;;;;;;39.13;21.45;;;;;;;27.89;33.56;100144.95;1654160;86;20952;-64
2021/09/12 07:51:19;;;;;;;38.65;19.87;;;;;;;27.79;34.11;100146.97;1675792;85;21099;-63
2021/09/12 07:53:45;;;;;;;36.68;21.48;;;;;;;27.74;34.42;100147.20;1680509;83;21112;-63
2021/09/12 07:56:14;;;;;;;25.97;16.48;;;;;;;27.69;34.30;100147.97;1710409;83;21032;-63
2021/09/12 07:58:42;;;;;;;27.07;16.67;;;;;;;27.57;34.89;100141.27;1685628;83;20917;-63
2021/09/12 08:01:09;;;;;;;30.80;16.20;;;;;;;27.58;35.00;100139.34;1682091;85;20948;-63
2021/09/12 08:03:36;;;;;;;24.87;15.40;;;;;;;27.61;34.78;100146.34;1701537;83;20969;-65
2021/09/12 08:06:04;;;;;;;24.12;13.75;;;;;;;27.51;34.19;100138.50;1681230;84;20983;-62
2021/09/12 08:08:30;;;;;;;22.42;12.65;;;;;;;27.40;34.52;100138.68;1711363;83;21128;-62
2021/09/12 08:10:57;;;;;;;22.77;12.10;;;;;;;27.41;34.84;100133.42;1690347;83;21573;-63
2021/09/12 08:13:24;;;;;;;17.98;12.10;;;;;;;27.50;34.73;100134.72;1710181;83;21039;-62
2021/09/12 08:15:51;;;;;;;18.52;11.65;;;;;;;27.61;35.00;100133.95;1756443;81;21522;-63
2021/09/12 08:18:19;;;;;;;21.50;11.50;;;;;;;27.73;34.84;100130.44;1748515;81;21007;-63
2021/09/12 08:20:46;;;;;;;;;;;;;;;27.78;34.20;100132.16;1748715;82;21333;-63
2021/09/12 08:23:15;;;;;;;23.70;10.65;;;;;;;27.71;34.31;100135.48;1748242;82;20158;-62
2021/09/12 08:25:44;;;;;;;17.00;10.08;;;;;;;27.69;34.83;100133.62;1746298;82;21034;-63
2021/09/12 08:28:12;;;;;;;18.48;10.35;;;;;;;27.77;34.73;100133.33;1746170;82;20990;-64
2021/09/12 08:30:39;;;;;;;19.30;9.70;;;;;;;27.88;34.47;100123.47;1746509;82;21030;-63
2021/09/12 08:33:14;;;;;;;15.43;10.45;;;;;;;28.01;34.62;100124.91;1746084;82;21085;-62
2021/09/12 08:35:41;;;;;;;14.85;10.20;;;;;;;28.00;32.79;100126.84;1739893;82;20919;-63
2021/09/12 08:38:11;;;;;;;14.47;9.45;;;;;;;27.78;33.35;100123.91;1746368;82;20939;-64
2021/09/12 08:40:40;;;;;;;12.20;8.95;;;;;;;27.64;33.04;100120.67;1746687;82;21011;-63
2021/09/12 08:43:07;;;;;;;13.85;8.78;;;;;;;27.56;33.71;100116.84;1746876;82;20915;-61
2021/09/12 08:45:35;;;;;;;21.00;10.13;;;;;;;27.59;33.91;100127.17;1746927;82;21962;-63
2021/09/12 08:48:02;;;;;;;14.53;9.93;;;;;;;27.62;32.11;100118.27;1746464;82;21001;-62
2021/09/12 08:50:29;;;;;;;15.13;9.48;;;;;;;27.54;32.57;100123.27;1746048;82;22224;-63
2021/09/12 08:52:57;;;;;;;16.75;10.53;;;;;;;27.52;32.20;100124.98;1746375;82;21061;-61
2021/09/12 08:55:24;;;;;;;17.20;10.05;;;;;;;27.45;32.08;100126.89;1744670;82;20840;-63
2021/09/12 08:57:52;;;;;;;20.70;10.15;;;;;;;27.36;31.69;100120.67;1742829;82;21123;-61
2021/09/12 09:00:29;;;;;;;17.85;8.73;;;;;;;27.21;31.38;100132.28;1743880;82;21018;-62
2021/09/12 09:03:03;;;;;;;16.17;9.55;;;;;;;27.07;32.36;100124.29;1740982;82;21013;-63
2021/09/12 09:05:35;;;;;;;16.82;8.95;;;;;;;27.09;32.22;100131.63;1743610;80;20975;-63
2021/09/12 09:08:16;;;;;;;18.02;8.80;;;;;;;27.08;31.57;100123.16;1746390;82;20954;-63
2021/09/12 09:10:46;;;;;;;15.32;8.15;;;;;;;27.04;32.52;100129.88;1707176;83;21085;-63
2021/09/12 09:13:37;;;;;;;12.40;7.25;;;;;;;27.03;30.88;100131.04;1744060;81;21014;-63
2021/09/12 09:16:04;;;;;;;13.05;6.95;;;;;;;26.89;31.45;100122.24;1743680;82;20911;-62
2021/09/12 09:18:35;;;;;;;11.73;6.72;;;;;;;26.88;31.21;100130.25;1744387;82;21029;-62
2021/09/12 09:21:29;;;;;;;12.43;7.95;;;;;;;26.89;30.79;100125.78;1744057;82;21486;-63
2021/09/12 09:24:27;;;;;;;14.43;7.70;;;;;;;26.93;30.72;100121.23;1695851;83;21097;-61
2021/09/12 09:27:03;;;;;;;11.03;6.75;;;;;;;26.89;30.84;100118.91;1710568;83;21051;-62
2021/09/12 09:29:36;;;;;;;10.85;6.33;;;;;;;26.91;29.86;100119.41;1710063;83;21075;-62
2021/09/12 09:32:13;;;;;;;11.90;6.28;;;;;;;26.90;30.51;100123.28;1709672;83;21041;-65
2021/09/12 09:34:44;;;;;;;10.25;5.87;;;;;;;26.90;29.68;100116.41;1677020;85;21011;-62
2021/09/12 09:37:17;;;;;;;15.98;6.05;;;;;;;26.82;29.52;100118.64;1668845;85;21490;-63
2021/09/12 09:39:56;;;;;;;9.95;6.12;;;;;;;26.66;29.83;100117.58;1681509;84;21046;-63
2021/09/12 09:42:43;;;;;;;12.88;6.85;;;;;;;26.53;30.44;100118.87;1716883;82;20987;-63
2021/09/12 09:45:17;;;;;;;10.13;6.28;;;;;;;26.50;30.01;100115.42;1662948;85;20964;-67
2021/09/12 09:47:47;;;;;;;10.70;6.03;;;;;;;26.46;30.74;100117.22;1695762;83;20983;-63
2021/09/12 09:50:24;;;;;;;12.58;6.33;;;;;;;26.53;30.82;100113.93;1668498;83;20912;-61
2021/09/12 09:52:53;;;;;;;11.68;5.62;;;;;;;26.64;30.05;100113.80;1693569;84;21003;-63
2021/09/12 09:55:25;;;;;;;8.68;5.83;;;;;;;26.69;30.22;100112.27;1713842;83;20868;-63
2021/09/12 09:57:55;;;;;;;10.63;6.15;;;;;;;26.75;30.33;100112.31;1717935;83;21758;-62
2021/09/12 10:00:24;;;;;;;12.75;6.60;;;;;;;26.80;29.36;100109.13;1753530;81;20934;-62
2021/09/12 10:02:51;;;;;;;12.07;6.17;;;;;;;26.79;29.71;100104.77;1710847;83;21105;-62
2021/09/12 10:05:21;;;;;;;12.03;6.05;;;;;;;26.80;29.70;100110.51;1710235;82;20992;-63
2021/09/12 10:07:50;;;;;;;9.68;5.75;;;;;;;26.78;29.83;100101.22;1691342;83;21067;-62
2021/09/12 10:10:19;;;;;;;10.32;5.70;;;;;;;26.79;29.59;100106.14;1710653;83;21540;-64
2021/09/12 10:12:49;;;;;;;8.40;5.85;;;;;;;26.78;29.53;100104.52;1725485;82;21126;-63
2021/09/12 10:15:22;;;;;;;8.33;5.62;;;;;;;26.77;29.42;100106.48;1694436;84;21511;-63
2021/09/12 10:17:49;;;;;;;8.43;5.58;;;;;;;26.77;29.25;100104.27;1763099;80;20979;-62
2021/09/12 10:20:17;;;;;;;6.85;5.35;;;;;;;26.73;29.19;100106.32;1759916;80;20963;-63
2021/09/12 10:22:52;;;;;;;9.13;5.30;;;;;;;26.71;29.33;100104.48;1751499;80;20951;-62
2021/09/12 10:25:21;;;;;;;6.67;5.17;;;;;;;26.75;29.53;100100.48;1755288;80;21521;-64
2021/09/12 10:27:49;;;;;;;10.13;5.00;;;;;;;26.76;29.46;100103.48;1765691;80;21755;-63
2021/09/12 10:30:33;;;;;;;8.23;5.47;;;;;;;26.76;29.54;100095.23;1725173;80;21454;-64
2021/09/12 10:33:13;;;;;;;8.85;5.37;;;;;;;26.80;29.12;100102.26;1754775;80;21037;-62
2021/09/12 10:35:51;;;;;;;11.18;4.97;;;;;;;26.81;29.19;100093.67;1762450;80;20927;-62
2021/09/12 10:38:40;;;;;;;;;;;;;;;26.87;29.29;100090.95;1763081;80;21035;-63
2021/09/12 10:41:13;;;;;;;6.90;5.70;;;;;;;26.89;29.25;100087.29;1762490;80;21140;-65
2021/09/12 10:43:43;;;;;;;10.50;5.05;;;;;;;26.77;28.88;100098.78;1759998;80;20923;-62
2021/09/12 10:46:15;;;;;;;7.80;5.20;;;;;;;26.65;29.64;100094.80;1761265;80;20958;-62
2021/09/12 10:48:53;;;;;;;10.30;5.10;;;;;;;26.65;29.32;100095.34;1753121;80;20931;-62
2021/09/12 10:51:27;;;;;;;7.17;5.05;;;;;;;26.69;28.44;100093.58;1718608;80;21469;-65
2021/09/12 10:54:02;;;;;;;5.62;4.72;;;;;;;26.70;28.87;100097.95;1759460;80;21158;-64
2021/09/12 10:56:30;;;;;;;8.80;4.83;;;;;;;26.70;28.71;100091.87;1760037;80;20998;-64
2021/09/12 10:58:59;;;;;;;;;;;;;;;26.71;28.93;100092.12;1763023;80;20931;-64
2021/09/12 11:01:36;;;;;;;9.70;5.30;;;;;;;26.71;28.68;100085.83;1757819;80;20130;-64
2021/09/12 11:04:03;;;;;;;9.20;5.60;;;;;;;26.63;28.18;100088.81;1766110;80;21462;-65
2021/09/12 11:06:35;;;;;;;6.87;5.50;;;;;;;26.55;28.19;100082.23;1762503;79;21758;-63
2021/09/12 11:09:04;;;;;;;5.45;4.30;;;;;;;26.50;28.10;100084.37;1760153;80;21571;-63
2021/09/12 11:11:33;;;;;;;7.05;4.65;;;;;;;26.43;28.64;100072.55;1759712;80;20947;-64
2021/09/12 11:13:59;;;;;;;11.03;5.90;;;;;;;26.43;28.85;100067.05;1724716;82;20903;-64
2021/09/12 11:16:27;;;;;;;11.40;5.67;;;;;;;26.48;28.42;100072.92;1729859;80;21550;-64
2021/09/12 11:19:01;;;;;;;10.70;5.08;;;;;;;26.48;28.77;100068.80;1744026;80;21034;-62
2021/09/12 11:21:36;;;;;;;6.47;4.78;;;;;;;26.51;29.13;100072.25;1757864;80;20974;-64